createdAt,value
2019-06-26T00:01:50.088Z,24.80
2019-06-26T00:04:24.768Z,26.00
2019-06-26T00:06:59.411Z,26.25
2019-06-26T00:09:34.074Z,26.50
2019-06-26T00:12:10.386Z,25.50
2019-06-26T00:14:45.097Z,24.25
2019-06-26T00:17:19.784Z,24.00
2019-06-26T00:19:54.425Z,25.25
2019-06-26T00:22:29.065Z,25.75
2019-06-26T00:25:07.002Z,27.75
2019-06-26T00:27:41.645Z,28.25
2019-06-26T00:30:16.290Z,27.75
2019-06-26T00:32:51.001Z,25.40
2019-06-26T00:35:25.673Z,25.50
2019-06-26T00:38:00.431Z,24.25
2019-06-26T00:40:35.209Z,27.25
2019-06-26T00:43:10.018Z,27.00
2019-06-26T00:45:44.736Z,27.25
2019-06-26T00:48:19.373Z,28.20
2019-06-26T00:50:54.042Z,26.25
2019-06-26T00:53:28.803Z,25.00
2019-06-26T00:56:03.593Z,23.25
2019-06-26T00:58:38.243Z,26.00
2019-06-26T01:01:12.960Z,25.00
2019-06-26T01:03:49.408Z,25.00
2019-06-26T01:06:44.066Z,27.00
2019-06-26T01:09:21.848Z,26.20
2019-06-26T01:11:56.643Z,26.00
2019-06-26T01:14:34.042Z,26.00
2019-06-26T01:17:08.672Z,26.00
2019-06-26T01:19:44.588Z,26.00
2019-06-26T01:22:20.441Z,26.00
2019-06-26T01:24:55.372Z,25.25
2019-06-26T01:27:31.891Z,26.60
2019-06-26T01:30:07.510Z,26.50
2019-06-26T01:32:42.426Z,26.25
2019-06-26T01:35:17.084Z,25.20
2019-06-26T01:37:51.937Z,24.75
2019-06-26T01:40:26.548Z,25.75
2019-06-26T01:43:01.194Z,26.40
2019-06-26T01:45:35.850Z,26.00
2019-06-26T01:48:10.493Z,25.25
2019-06-26T01:50:45.208Z,25.20
2019-06-26T01:53:19.854Z,26.00
2019-06-26T01:55:54.491Z,26.50
2019-06-26T01:58:29.210Z,25.00
2019-06-26T02:01:04.223Z,26.75
2019-06-26T02:03:38.877Z,26.25
2019-06-26T02:06:14.504Z,24.60
2019-06-26T02:08:50.027Z,27.25
2019-06-26T02:11:24.660Z,27.00
2019-06-26T02:13:59.298Z,26.00
2019-06-26T02:16:33.945Z,25.50
2019-06-26T02:19:10.313Z,27.25
2019-06-26T02:21:44.982Z,26.50
2019-06-26T02:24:19.659Z,26.75
2019-06-26T02:26:54.352Z,27.60
2019-06-26T02:29:29.030Z,26.75
2019-06-26T02:32:03.660Z,26.75
2019-06-26T02:34:38.372Z,27.00
2019-06-26T02:37:13.006Z,27.75
2019-06-26T02:39:47.657Z,27.00
2019-06-26T02:42:22.501Z,27.60
2019-06-26T02:44:57.132Z,27.50
2019-06-26T02:47:31.762Z,27.25
2019-06-26T02:50:07.530Z,26.80
2019-06-26T02:52:42.179Z,28.00
2019-06-26T02:55:16.818Z,28.00
2019-06-26T02:57:51.452Z,27.40
2019-06-26T03:00:26.118Z,28.00
2019-06-26T03:03:00.745Z,28.00
2019-06-26T03:05:35.479Z,27.20
2019-06-26T03:08:10.147Z,28.00
2019-06-26T03:10:44.853Z,28.25
2019-06-26T03:13:19.500Z,28.00
2019-06-26T03:15:54.150Z,28.00
2019-06-26T03:18:28.871Z,26.00
2019-06-26T03:21:03.514Z,29.60
2019-06-26T03:23:38.181Z,28.75
2019-06-26T03:26:12.859Z,25.00
2019-06-26T03:28:47.500Z,28.40
2019-06-26T03:31:22.167Z,28.00
2019-06-26T03:33:56.798Z,27.75
2019-06-26T03:36:31.478Z,27.00
2019-06-26T03:39:08.368Z,28.00
2019-06-26T03:41:43.258Z,28.00
2019-06-26T03:44:17.942Z,28.00
2019-06-26T03:46:52.643Z,28.00
2019-06-26T03:49:27.310Z,28.00
2019-06-26T03:52:01.964Z,28.00
2019-06-26T03:54:36.618Z,29.00
2019-06-26T03:57:11.256Z,29.25
2019-06-26T03:59:45.906Z,29.25
2019-06-26T04:02:20.566Z,28.00
2019-06-26T04:04:55.232Z,29.50
2019-06-26T04:07:29.892Z,31.00
2019-06-26T04:10:06.493Z,31.50
2019-06-26T04:12:41.137Z,31.00
2019-06-26T04:15:15.804Z,32.00
2019-06-26T04:17:50.441Z,32.50
2019-06-26T04:20:25.455Z,33.20
2019-06-26T04:23:00.088Z,34.40
2019-06-26T04:25:37.831Z,33.00
2019-06-26T04:28:11.158Z,34.00
2019-06-26T04:30:45.821Z,34.00
2019-06-26T04:33:20.461Z,35.00
2019-06-26T04:35:55.114Z,35.00
2019-06-26T04:38:29.748Z,34.75
2019-06-26T04:41:05.066Z,35.00
2019-06-26T04:43:39.720Z,36.25
2019-06-26T04:46:14.414Z,34.00
2019-06-26T04:48:49.110Z,34.60
2019-06-26T04:51:23.779Z,37.50
2019-06-26T04:53:58.485Z,36.25
2019-06-26T04:56:33.125Z,35.00
2019-06-26T04:59:07.804Z,38.50
2019-06-26T05:01:42.512Z,35.00
2019-06-26T05:04:17.119Z,37.00
2019-06-26T05:06:51.768Z,36.75
2019-06-26T05:09:26.494Z,40.75
2019-06-26T05:12:01.154Z,41.80
2019-06-26T05:14:35.775Z,37.25
2019-06-26T05:17:10.474Z,38.25
2019-06-26T05:19:45.266Z,38.00
2019-06-26T05:22:21.034Z,36.50
2019-06-26T05:24:55.711Z,37.00
2019-06-26T05:27:30.350Z,38.50
2019-06-26T05:30:09.846Z,38.50
2019-06-26T05:32:44.527Z,38.50
2019-06-26T05:35:19.502Z,40.50
2019-06-26T05:37:54.150Z,39.00
2019-06-26T05:40:28.805Z,39.00
2019-06-26T05:43:03.507Z,42.25
2019-06-26T05:45:38.179Z,41.60
2019-06-26T05:48:12.827Z,41.75
2019-06-26T05:50:47.469Z,39.75
2019-06-26T05:53:22.097Z,41.50
2019-06-26T05:55:56.740Z,37.25
2019-06-26T05:58:31.939Z,39.00
2019-06-26T06:01:06.651Z,43.25
2019-06-26T06:03:41.287Z,42.60
2019-06-26T06:06:15.917Z,42.50
2019-06-26T06:08:50.575Z,44.50
2019-06-26T06:11:25.229Z,42.60
2019-06-26T06:13:59.882Z,42.75
2019-06-26T06:16:46.733Z,44.00
2019-06-26T06:19:11.059Z,40.75
2019-06-26T06:21:45.757Z,39.50
2019-06-26T06:24:20.412Z,40.50
2019-06-26T06:26:55.126Z,43.25
2019-06-26T06:29:30.833Z,40.50
2019-06-26T06:32:05.577Z,40.75
2019-06-26T06:34:40.307Z,42.80
2019-06-26T06:37:14.936Z,43.50
2019-06-26T06:39:49.591Z,45.00
2019-06-26T06:42:24.236Z,40.00
2019-06-26T06:44:58.963Z,41.75
2019-06-26T06:47:33.601Z,38.00
2019-06-26T06:50:08.254Z,40.20
2019-06-26T06:52:42.972Z,42.75
2019-06-26T06:55:17.612Z,41.00
2019-06-26T06:57:52.268Z,40.80
2019-06-26T07:00:26.919Z,40.50
2019-06-26T07:03:03.260Z,42.75
2019-06-26T07:05:37.899Z,39.75
2019-06-26T07:08:12.625Z,40.25
2019-06-26T07:10:47.965Z,39.40
2019-06-26T07:13:22.627Z,40.50
2019-06-26T07:15:57.341Z,41.50
2019-06-26T07:18:31.978Z,40.75
2019-06-26T07:21:06.627Z,42.25
2019-06-26T07:23:41.291Z,40.20
2019-06-26T07:26:15.905Z,39.00
2019-06-26T07:28:50.556Z,42.00
2019-06-26T07:31:25.256Z,36.00
2019-06-26T07:33:59.871Z,37.00
2019-06-26T07:36:34.507Z,36.75
2019-06-26T07:39:09.178Z,38.50
2019-06-26T07:41:43.814Z,37.50
2019-06-26T07:44:18.684Z,33.60
2019-06-26T07:46:53.341Z,36.60
2019-06-26T07:49:28.215Z,38.50
2019-06-26T07:52:03.123Z,34.75
2019-06-26T07:54:37.848Z,33.50
2019-06-26T07:57:12.538Z,34.00
2019-06-26T07:59:47.242Z,34.25
2019-06-26T08:02:22.040Z,37.00
2019-06-26T08:04:56.793Z,33.75
2019-06-26T08:07:31.422Z,37.25
2019-06-26T08:10:08.157Z,34.00
2019-06-26T08:12:42.810Z,37.25
2019-06-26T08:15:17.626Z,35.80
2019-06-26T08:18:00.412Z,35.25
2019-06-26T08:20:28.641Z,36.40
2019-06-26T08:23:03.347Z,36.00
2019-06-26T08:25:37.980Z,32.25
2019-06-26T08:30:45.976Z,33.40
2019-06-26T08:33:20.697Z,34.60
2019-06-26T08:35:55.420Z,35.00
2019-06-26T08:38:30.075Z,35.25
2019-06-26T08:41:04.805Z,32.25
2019-06-26T08:43:39.495Z,33.20
2019-06-26T08:46:14.963Z,35.40
2019-06-26T08:48:52.088Z,37.00
2019-06-26T08:51:25.981Z,33.50
2019-06-26T08:54:04.448Z,31.80
2019-06-26T08:56:36.984Z,32.25
2019-06-26T08:59:11.662Z,32.40
2019-06-26T09:01:46.300Z,31.75
2019-06-26T09:04:20.962Z,32.00
2019-06-26T09:06:55.616Z,32.00
2019-06-26T09:09:30.327Z,31.00
2019-06-26T09:12:04.954Z,31.50
2019-06-26T09:14:39.636Z,31.00
2019-06-26T09:17:14.273Z,29.50
2019-06-26T09:19:49.014Z,29.40
2019-06-26T09:22:23.737Z,30.00
2019-06-26T09:24:58.466Z,29.00
2019-06-26T09:27:33.191Z,27.25
2019-06-26T09:30:08.187Z,27.80
2019-06-26T09:32:42.933Z,24.80
2019-06-26T09:35:17.583Z,24.50
2019-06-26T09:37:52.254Z,24.25
2019-06-26T09:40:26.928Z,23.60
2019-06-26T09:43:01.588Z,24.50
2019-06-26T09:45:36.336Z,24.50
2019-06-26T09:48:11.014Z,24.20
2019-06-26T09:50:45.755Z,25.00
2019-06-26T09:53:20.523Z,21.75
2019-06-26T09:55:55.323Z,24.75
2019-06-26T09:58:29.982Z,23.00
2019-06-26T10:01:04.691Z,24.20
2019-06-26T10:03:39.319Z,23.00
2019-06-26T10:06:14.292Z,23.60
2019-06-26T10:08:48.949Z,23.00
2019-06-26T10:11:23.609Z,22.25
2019-06-26T10:16:41.594Z,20.40
2019-06-26T10:19:16.281Z,21.80
2019-06-26T10:21:50.922Z,23.25
2019-06-26T10:24:25.572Z,23.25
2019-06-26T10:27:00.226Z,21.60
2019-06-26T10:29:34.886Z,22.00
2019-06-26T10:32:09.511Z,20.25
2019-06-26T10:34:44.178Z,22.20
2019-06-26T10:37:18.907Z,21.60
2019-06-26T10:39:53.537Z,20.25
2019-06-26T10:42:28.964Z,19.40
2019-06-26T10:45:09.262Z,20.80
2019-06-26T10:47:43.905Z,19.50
2019-06-26T10:50:18.732Z,19.40
2019-06-26T10:52:53.373Z,19.25
2019-06-26T10:55:28.028Z,19.00
2019-06-26T10:58:04.347Z,17.75
2019-06-26T11:00:39.050Z,18.40
2019-06-26T11:03:15.130Z,18.60
2019-06-26T11:05:55.584Z,17.25
2019-06-26T11:08:30.289Z,17.75
2019-06-26T11:11:05.170Z,18.50
2019-06-26T11:13:39.823Z,17.75
2019-06-26T11:16:14.626Z,20.00
2019-06-26T11:18:50.984Z,19.60
2019-06-26T11:21:25.641Z,18.50
2019-06-26T11:24:00.280Z,18.20
2019-06-26T11:26:35.461Z,18.25
2019-06-26T11:29:10.132Z,17.00
2019-06-26T11:31:44.764Z,17.25
2019-06-26T11:34:19.440Z,16.40
2019-06-26T11:37:03.755Z,17.25
2019-06-26T11:39:30.488Z,15.75
2019-06-26T11:42:05.288Z,19.25
2019-06-26T11:44:39.946Z,17.75
2019-06-26T11:47:14.779Z,18.20
2019-06-26T11:49:59.478Z,17.60
2019-06-26T11:52:25.842Z,18.25
2019-06-26T11:55:02.995Z,19.80
2019-06-26T11:57:36.831Z,18.00
2019-06-26T12:00:19.930Z,19.20
2019-06-26T12:02:54.592Z,22.40
2019-06-26T12:05:29.230Z,22.00
2019-06-26T12:08:04.115Z,20.25
2019-06-26T12:10:40.573Z,21.50
2019-06-26T12:13:15.211Z,20.25
2019-06-26T12:15:49.862Z,19.00
2019-06-26T12:18:24.498Z,20.25
2019-06-26T12:20:59.165Z,20.25
2019-06-26T12:23:33.803Z,19.80
2019-06-26T12:26:08.458Z,19.00
2019-06-26T12:28:43.115Z,20.00
2019-06-26T12:31:17.781Z,19.00
2019-06-26T12:33:52.416Z,18.25
2019-06-26T12:36:27.096Z,16.50
2019-06-26T12:39:01.733Z,17.00
2019-06-26T12:41:36.388Z,16.25
2019-06-26T12:44:11.091Z,15.25
2019-06-26T12:46:45.742Z,14.80
2019-06-26T12:49:20.396Z,15.00
2019-06-26T12:51:55.036Z,17.50
2019-06-26T12:54:29.706Z,19.40
2019-06-26T12:57:04.345Z,18.25
2019-06-26T12:59:55.648Z,13.00
2019-06-26T13:02:15.499Z,15.25
2019-06-26T13:04:50.169Z,15.25
2019-06-26T13:07:24.820Z,15.80
2019-06-26T13:09:59.466Z,16.75
2019-06-26T13:12:34.056Z,16.25
2019-06-26T13:15:09.093Z,18.80
2019-06-26T13:17:43.745Z,17.00
2019-06-26T13:20:18.474Z,14.60
2019-06-26T13:22:53.149Z,16.25
2019-06-26T13:25:27.798Z,14.20
2019-06-26T13:28:02.570Z,16.75
2019-06-26T13:30:40.212Z,8.00
2019-06-26T13:33:14.858Z,17.60
2019-06-26T13:35:49.541Z,14.75
2019-06-26T13:38:27.091Z,17.25
2019-06-26T13:41:00.641Z,13.50
2019-06-26T13:43:35.528Z,16.00
2019-06-26T13:46:10.205Z,16.75
2019-06-26T13:48:44.846Z,17.00
2019-06-26T13:51:21.658Z,16.50
2019-06-26T13:53:55.921Z,17.20
2019-06-26T13:56:30.647Z,17.25
2019-06-26T13:59:07.508Z,18.50
2019-06-26T14:01:41.700Z,19.25
2019-06-26T14:04:16.359Z,19.00
2019-06-26T14:06:51.022Z,17.40
2019-06-26T14:09:25.662Z,17.00
2019-06-26T14:12:00.304Z,18.50
2019-06-26T14:14:52.445Z,19.20
2019-06-26T14:17:11.337Z,20.25
2019-06-26T14:19:45.988Z,20.25
2019-06-26T14:22:20.617Z,18.75
2019-06-26T14:24:55.287Z,20.25
2019-06-26T14:27:29.911Z,20.25
2019-06-26T14:30:06.500Z,21.75
2019-06-26T14:32:41.156Z,19.60
2019-06-26T14:35:15.975Z,19.00
2019-06-26T14:37:50.650Z,19.50
2019-06-26T14:40:25.386Z,15.75
2019-06-26T14:43:00.029Z,17.20
2019-06-26T14:45:34.677Z,15.75
2019-06-26T14:48:09.337Z,16.60
2019-06-26T14:50:43.993Z,17.00
2019-06-26T14:53:18.655Z,17.80
2019-06-26T14:55:53.297Z,17.25
2019-06-26T14:58:28.458Z,14.00
2019-06-26T15:01:07.925Z,13.80
2019-06-26T15:03:42.675Z,14.25
2019-06-26T15:06:17.450Z,14.00
2019-06-26T15:08:52.068Z,15.00
2019-06-26T15:11:26.708Z,14.00
2019-06-26T15:14:01.495Z,13.80
2019-06-26T15:16:36.205Z,12.25
2019-06-26T15:19:10.854Z,12.00
2019-06-26T15:21:57.847Z,11.50
2019-06-26T15:24:21.896Z,12.25
2019-06-26T15:26:59.440Z,12.25
2019-06-26T15:29:34.457Z,12.75
2019-06-26T15:32:09.128Z,12.00
2019-06-26T15:34:43.941Z,12.75
2019-06-26T15:37:20.844Z,10.25
2019-06-26T15:40:02.134Z,11.50
2019-06-26T15:42:37.228Z,9.00
2019-06-26T15:45:12.440Z,9.75
2019-06-26T15:47:47.330Z,8.00
2019-06-26T15:50:24.779Z,8.50
2019-06-26T15:52:59.438Z,7.80
2019-06-26T15:55:34.460Z,10.75
2019-06-26T15:58:09.342Z,7.75
2019-06-26T16:00:45.271Z,8.60
2019-06-26T16:03:20.358Z,7.50
2019-06-26T16:05:55.775Z,8.00
2019-06-26T16:08:30.423Z,7.80
2019-06-26T16:11:05.449Z,7.75
2019-06-26T16:13:40.055Z,7.50
2019-06-26T16:16:15.043Z,6.00
2019-06-26T16:18:51.430Z,6.25
2019-06-26T16:21:26.110Z,6.75
2019-06-26T16:24:00.760Z,6.50
2019-06-26T16:26:35.591Z,5.60
2019-06-26T16:29:10.405Z,5.00
2019-06-26T16:31:45.162Z,6.25
2019-06-26T16:34:20.216Z,5.75
2019-06-26T16:36:55.053Z,5.50
2019-06-26T16:39:29.924Z,5.00
2019-06-26T16:42:04.610Z,5.00
2019-06-26T16:44:40.508Z,4.00
2019-06-26T16:47:15.195Z,4.75
2019-06-26T16:49:50.157Z,5.25
2019-06-26T16:52:24.816Z,4.25
2019-06-26T16:54:59.445Z,6.00
2019-06-26T16:57:34.077Z,5.00
2019-06-26T17:00:10.134Z,7.00
2019-06-26T17:02:45.076Z,6.00
2019-06-26T17:05:19.758Z,5.20
2019-06-26T17:07:54.531Z,5.00
2019-06-26T17:10:29.175Z,4.50
2019-06-26T17:13:03.803Z,5.20
2019-06-26T17:15:38.553Z,5.00
2019-06-26T17:18:14.006Z,3.40
2019-06-26T17:20:48.724Z,5.75
2019-06-26T17:23:23.392Z,4.50
2019-06-26T17:25:58.262Z,5.00
2019-06-26T17:28:32.968Z,5.00
2019-06-26T17:31:07.661Z,4.00
2019-06-26T17:33:42.288Z,6.00
2019-06-26T17:36:17.064Z,5.00
2019-06-26T17:38:51.807Z,3.00
2019-06-26T17:41:26.418Z,4.50
2019-06-26T17:44:01.146Z,3.75
2019-06-26T17:46:35.807Z,4.00
2019-06-26T17:49:10.523Z,4.00
2019-06-26T17:51:45.235Z,4.00
2019-06-26T17:54:20.157Z,4.75
2019-06-26T17:56:54.790Z,2.00
2019-06-26T17:59:29.472Z,4.25
2019-06-26T18:02:04.188Z,4.00
2019-06-26T18:04:38.924Z,4.00
2019-06-26T18:07:14.308Z,4.40
2019-06-26T18:09:48.946Z,4.00
2019-06-26T18:12:23.604Z,4.00
2019-06-26T18:14:58.320Z,5.20
2019-06-26T18:17:33.037Z,3.00
2019-06-26T18:20:08.369Z,4.00
2019-06-26T18:22:43.181Z,5.00
2019-06-26T18:25:17.889Z,5.00
2019-06-26T18:27:52.654Z,4.00
2019-06-26T18:30:27.392Z,4.00
2019-06-26T18:33:02.203Z,4.25
2019-06-26T18:35:36.891Z,4.75
2019-06-26T18:38:11.589Z,5.00
2019-06-26T18:40:46.242Z,4.80
2019-06-26T18:43:20.868Z,5.75
2019-06-26T18:45:55.517Z,5.00
2019-06-26T18:48:30.161Z,5.80
2019-06-26T18:51:04.814Z,4.00
2019-06-26T18:53:52.808Z,5.25
2019-06-26T18:56:16.188Z,4.50
2019-06-26T18:58:50.815Z,5.50
2019-06-26T19:01:25.476Z,5.00
2019-06-26T19:04:00.119Z,5.00
2019-06-26T19:06:34.738Z,4.00
2019-06-26T19:09:09.377Z,5.00
2019-06-26T19:11:44.017Z,6.00
2019-06-26T19:14:18.683Z,5.20
2019-06-26T19:16:53.365Z,5.20
2019-06-26T19:19:28.027Z,4.50
2019-06-26T19:22:02.687Z,5.00
2019-06-26T19:24:37.364Z,4.00
2019-06-26T19:27:12.016Z,5.00
2019-06-26T19:29:46.675Z,4.50
2019-06-26T19:32:21.293Z,4.00
2019-06-26T19:34:55.915Z,6.75
2019-06-26T19:37:30.558Z,4.40
2019-06-26T19:40:08.411Z,6.00
2019-06-26T19:42:42.045Z,3.25
2019-06-26T19:45:16.699Z,4.75
2019-06-26T19:47:51.343Z,4.75
2019-06-26T19:50:25.970Z,4.50
2019-06-26T19:53:00.621Z,5.00
2019-06-26T19:55:35.390Z,5.00
2019-06-26T19:58:10.030Z,4.75
2019-06-26T20:00:44.739Z,4.00
2019-06-26T20:03:19.398Z,5.00
2019-06-26T20:05:54.030Z,5.25
2019-06-26T20:08:28.660Z,4.60
2019-06-26T20:11:03.328Z,6.00
2019-06-26T20:13:37.973Z,6.25
2019-06-26T20:16:12.632Z,6.20
2019-06-26T20:18:47.331Z,4.75
2019-06-26T20:21:21.976Z,4.00
2019-06-26T20:23:56.606Z,5.00
2019-06-26T20:26:31.486Z,6.00
2019-06-26T20:29:06.164Z,6.00
2019-06-26T20:31:40.794Z,6.00
2019-06-26T20:34:15.445Z,4.00
2019-06-26T20:36:50.100Z,4.50
2019-06-26T20:39:24.747Z,5.60
2019-06-26T20:41:59.392Z,5.50
2019-06-26T20:44:34.117Z,5.25
2019-06-26T20:47:08.815Z,4.40
2019-06-26T20:49:53.144Z,4.50
2019-06-26T20:52:19.870Z,4.00
2019-06-26T20:55:01.391Z,4.00
2019-06-26T20:57:30.873Z,4.00
2019-06-26T21:00:09.518Z,5.00
2019-06-26T21:02:44.192Z,4.25
2019-06-26T21:05:18.847Z,4.00
2019-06-26T21:07:53.482Z,5.00
2019-06-26T21:10:28.140Z,4.00
2019-06-26T21:13:02.760Z,3.60
2019-06-26T21:15:37.587Z,5.00
2019-06-26T21:18:12.303Z,6.00
2019-06-26T21:20:47.011Z,6.80
2019-06-26T21:23:23.726Z,7.25
2019-06-26T21:25:58.452Z,6.25
2019-06-26T21:28:33.105Z,5.00
2019-06-26T21:31:07.739Z,5.50
2019-06-26T21:33:44.051Z,4.25
2019-06-26T21:36:18.791Z,5.00
2019-06-26T21:38:53.444Z,3.00
2019-06-26T21:41:28.136Z,4.00
2019-06-26T21:44:02.774Z,5.00
2019-06-26T21:46:38.562Z,4.00
2019-06-26T21:49:14.150Z,5.60
2019-06-26T21:51:48.812Z,5.40
2019-06-26T21:54:23.465Z,5.00
2019-06-26T21:56:58.170Z,5.50
2019-06-26T21:59:32.845Z,6.50
2019-06-26T22:02:09.122Z,7.00
2019-06-26T22:04:43.771Z,5.50
2019-06-26T22:07:18.455Z,5.00
2019-06-26T22:09:53.236Z,5.00
2019-06-26T22:12:27.866Z,4.00
2019-06-26T22:15:02.593Z,6.00
2019-06-26T22:17:38.838Z,5.00
2019-06-26T22:20:14.887Z,6.00
2019-06-26T22:22:49.570Z,4.75
2019-06-26T22:25:24.245Z,5.60
2019-06-26T22:27:58.877Z,4.00
2019-06-26T22:30:33.533Z,5.25
2019-06-26T22:33:08.168Z,5.00
2019-06-26T22:35:43.207Z,6.00
2019-06-26T22:38:17.838Z,5.00
2019-06-26T22:40:52.503Z,4.00
2019-06-26T22:43:27.147Z,6.00
2019-06-26T22:46:01.797Z,5.00
2019-06-26T22:48:36.587Z,5.25
2019-06-26T22:51:11.193Z,5.40
2019-06-26T22:53:46.275Z,2.25
2019-06-26T22:56:20.923Z,4.00
2019-06-26T22:58:55.550Z,5.50
2019-06-26T23:01:30.174Z,5.00
2019-06-26T23:04:04.818Z,4.75
2019-06-26T23:06:39.439Z,4.25
2019-06-26T23:09:14.467Z,3.40
2019-06-26T23:11:49.099Z,3.00
2019-06-26T23:14:23.743Z,4.00
2019-06-26T23:16:58.352Z,4.40
2019-06-26T23:19:32.992Z,3.00
2019-06-26T23:22:07.627Z,5.00
2019-06-26T23:24:42.324Z,4.00
2019-06-26T23:27:16.984Z,4.00
2019-06-26T23:29:51.665Z,2.00
2019-06-26T23:32:26.343Z,3.80
2019-06-26T23:35:01.034Z,4.00
2019-06-26T23:37:35.668Z,3.75
2019-06-26T23:40:10.441Z,4.00
2019-06-26T23:42:45.030Z,3.50
2019-06-26T23:45:19.665Z,4.00
2019-06-26T23:47:54.293Z,4.00
2019-06-26T23:50:28.946Z,3.50
2019-06-26T23:53:03.568Z,3.75
2019-06-26T23:55:38.235Z,4.80
2019-06-26T23:58:13.023Z,4.50
